createdAt,value
2018-09-28T00:00:49.939Z,989.361
2018-09-28T00:02:50.089Z,989.357
2018-09-28T00:04:50.616Z,989.342
2018-09-28T00:06:50.022Z,989.331
2018-09-28T00:08:50.122Z,989.318
2018-09-28T00:10:50.247Z,989.282
2018-09-28T00:12:50.485Z,989.239
2018-09-28T00:14:49.668Z,989.222
2018-09-28T00:16:50.008Z,989.202
2018-09-28T00:18:50.252Z,989.190
2018-09-28T00:20:50.390Z,989.154
2018-09-28T00:22:50.560Z,989.152
2018-09-28T00:24:49.700Z,989.154
2018-09-28T00:26:50.156Z,989.144
2018-09-28T00:28:50.258Z,989.144
2018-09-28T00:30:50.414Z,989.140
2018-09-28T00:32:50.537Z,989.117
2018-09-28T00:34:50.080Z,989.112
2018-09-28T00:36:50.320Z,989.091
2018-09-28T00:38:50.641Z,989.069
2018-09-28T00:40:49.943Z,989.070
2018-09-28T00:42:50.130Z,989.036
2018-09-28T00:44:50.354Z,989.027
2018-09-28T00:46:49.698Z,989.021
2018-09-28T00:48:49.925Z,989.010
2018-09-28T00:50:50.122Z,989.001
2018-09-28T00:52:50.267Z,988.982
2018-09-28T00:54:50.588Z,988.931
2018-09-28T00:56:50.047Z,988.917
2018-09-28T00:58:50.160Z,988.880
2018-09-28T01:00:50.443Z,988.857
2018-09-28T01:02:50.483Z,988.837
2018-09-28T01:04:50.021Z,988.811
2018-09-28T01:06:50.427Z,988.777
2018-09-28T01:08:49.660Z,988.782
2018-09-28T01:10:49.831Z,988.732
2018-09-28T01:12:49.901Z,988.709
2018-09-28T01:14:50.159Z,988.689
2018-09-28T01:16:49.640Z,988.690
2018-09-28T01:18:49.825Z,988.699
2018-09-28T01:20:49.880Z,988.711
2018-09-28T01:22:49.973Z,988.717
2018-09-28T01:24:50.120Z,988.706
2018-09-28T01:26:50.307Z,988.667
2018-09-28T01:28:50.529Z,988.628
2018-09-28T01:30:49.742Z,988.568
2018-09-28T01:32:49.884Z,988.568
2018-09-28T01:34:50.323Z,988.482
2018-09-28T01:36:50.571Z,988.458
2018-09-28T01:38:50.609Z,988.400
2018-09-28T01:40:49.728Z,988.384
2018-09-28T01:42:49.955Z,988.370
2018-09-28T01:44:50.027Z,988.356
2018-09-28T01:46:50.396Z,988.352
2018-09-28T01:48:50.497Z,988.330
2018-09-28T01:50:50.540Z,988.320
2018-09-28T01:52:49.776Z,988.296
2018-09-28T01:54:50.057Z,988.285
2018-09-28T01:56:50.340Z,988.288
2018-09-28T01:58:50.474Z,988.271
2018-09-28T02:00:50.744Z,988.257
2018-09-28T02:02:49.767Z,988.232
2018-09-28T02:04:50.342Z,988.241
2018-09-28T02:06:49.638Z,988.224
2018-09-28T02:08:49.929Z,988.231
2018-09-28T02:10:50.044Z,988.202
2018-09-28T02:12:50.193Z,988.202
2018-09-28T02:14:50.226Z,988.182
2018-09-28T02:16:50.517Z,988.151
2018-09-28T02:18:49.651Z,988.139
2018-09-28T02:20:49.665Z,988.141
2018-09-28T02:22:49.888Z,988.141
2018-09-28T02:24:50.021Z,988.135
2018-09-28T02:26:50.354Z,988.097
2018-09-28T02:28:50.492Z,988.076
2018-09-28T02:30:49.686Z,988.059
2018-09-28T02:32:49.847Z,988.016
2018-09-28T02:34:50.410Z,988.014
2018-09-28T02:36:49.831Z,988.014
2018-09-28T02:38:50.044Z,988.032
2018-09-28T02:40:50.116Z,988.037
2018-09-28T02:42:50.242Z,988.017
2018-09-28T02:44:50.356Z,988.017
2018-09-28T02:46:49.791Z,987.986
2018-09-28T02:48:49.929Z,987.976
2018-09-28T02:50:50.043Z,987.974
2018-09-28T02:52:50.139Z,987.969
2018-09-28T02:54:50.299Z,987.950
2018-09-28T02:56:49.839Z,987.937
2018-09-28T02:58:50.235Z,987.902
2018-09-28T03:00:50.410Z,987.855
2018-09-28T03:02:50.541Z,987.835
2018-09-28T03:04:50.251Z,987.818
2018-09-28T03:06:50.518Z,987.816
2018-09-28T03:08:49.677Z,987.858
2018-09-28T03:10:49.878Z,987.896
2018-09-28T03:12:49.976Z,987.909
2018-09-28T03:14:50.139Z,987.906
2018-09-28T03:16:50.548Z,987.902
2018-09-28T03:18:49.757Z,987.892
2018-09-28T03:20:49.884Z,987.887
2018-09-28T03:22:50.032Z,987.885
2018-09-28T03:24:50.145Z,987.878
2018-09-28T03:26:50.601Z,987.865
2018-09-28T03:28:49.884Z,987.833
2018-09-28T03:30:50.185Z,987.814
2018-09-28T03:32:50.421Z,987.809
2018-09-28T03:34:50.062Z,987.792
2018-09-28T03:36:50.343Z,987.802
2018-09-28T03:38:49.678Z,987.802
2018-09-28T03:40:49.845Z,987.805
2018-09-28T03:42:50.057Z,987.815
2018-09-28T03:44:50.202Z,987.834
2018-09-28T03:46:50.610Z,987.844
2018-09-28T03:48:49.827Z,987.844
2018-09-28T03:50:49.958Z,987.863
2018-09-28T03:52:50.102Z,987.872
2018-09-28T03:54:50.264Z,987.902
2018-09-28T03:56:50.582Z,987.922
2018-09-28T03:58:49.917Z,987.938
2018-09-28T04:00:50.083Z,987.937
2018-09-28T04:02:50.398Z,987.940
2018-09-28T04:04:50.162Z,987.928
2018-09-28T04:06:50.600Z,987.911
2018-09-28T04:08:49.750Z,987.898
2018-09-28T04:10:49.867Z,987.880
2018-09-28T04:12:49.945Z,987.870
2018-09-28T04:14:50.073Z,987.834
2018-09-28T04:16:50.462Z,987.822
2018-09-28T04:18:49.644Z,987.806
2018-09-28T04:20:49.829Z,987.808
2018-09-28T04:22:50.008Z,987.803
2018-09-28T04:24:50.305Z,987.800
2018-09-28T04:26:50.187Z,987.801
2018-09-28T04:28:50.176Z,987.800
2018-09-28T04:30:50.393Z,987.774
2018-09-28T04:32:50.481Z,987.748
2018-09-28T04:34:50.078Z,987.742
2018-09-28T04:36:50.312Z,987.702
2018-09-28T04:38:50.477Z,987.688
2018-09-28T04:40:50.432Z,987.681
2018-09-28T04:42:50.623Z,987.678
2018-09-28T04:44:49.710Z,987.736
2018-09-28T04:46:49.948Z,987.770
2018-09-28T04:48:50.016Z,987.840
2018-09-28T04:50:50.208Z,987.874
2018-09-28T04:52:50.195Z,987.900
2018-09-28T04:54:50.396Z,987.903
2018-09-28T04:56:49.795Z,987.947
2018-09-28T04:58:50.125Z,987.955
2018-09-28T05:00:50.245Z,987.955
2018-09-28T05:02:50.473Z,987.971
2018-09-28T05:04:49.913Z,987.974
2018-09-28T05:06:50.105Z,987.993
2018-09-28T05:08:50.224Z,988.011
2018-09-28T05:10:50.206Z,988.044
2018-09-28T05:12:50.328Z,988.047
2018-09-28T05:14:50.511Z,988.044
2018-09-28T05:16:49.662Z,988.062
2018-09-28T05:18:49.917Z,988.067
2018-09-28T05:20:50.126Z,988.077
2018-09-28T05:22:50.273Z,988.094
2018-09-28T05:24:50.494Z,988.107
2018-09-28T05:26:49.759Z,988.137
2018-09-28T05:28:49.834Z,988.159
2018-09-28T05:30:54.640Z,988.153
2018-09-28T05:32:50.422Z,988.155
2018-09-28T05:34:49.675Z,988.152
2018-09-28T05:36:50.599Z,988.145
2018-09-28T05:38:49.756Z,988.143
2018-09-28T05:40:49.899Z,988.160
2018-09-28T05:42:49.995Z,988.150
2018-09-28T05:44:50.123Z,988.144
2018-09-28T05:46:50.497Z,988.147
2018-09-28T05:48:49.627Z,988.144
2018-09-28T05:50:49.833Z,988.141
2018-09-28T05:52:49.878Z,988.150
2018-09-28T05:54:50.024Z,988.169
2018-09-28T05:56:50.342Z,988.174
2018-09-28T05:58:50.602Z,988.196
2018-09-28T06:00:49.889Z,988.201
2018-09-28T06:02:50.008Z,988.250
2018-09-28T06:04:49.791Z,988.259
2018-09-28T06:06:50.119Z,988.259
2018-09-28T06:08:50.382Z,988.281
2018-09-28T06:10:50.522Z,988.301
2018-09-28T06:12:49.777Z,988.312
2018-09-28T06:14:49.944Z,988.318
2018-09-28T06:16:50.482Z,988.334
2018-09-28T06:18:49.934Z,988.334
2018-09-28T06:20:50.280Z,988.322
2018-09-28T06:22:50.432Z,988.311
2018-09-28T06:24:50.599Z,988.311
2018-09-28T06:26:50.012Z,988.286
2018-09-28T06:28:50.158Z,988.288
2018-09-28T06:30:50.369Z,988.284
2018-09-28T06:32:50.509Z,988.299
2018-09-28T06:34:50.275Z,988.308
2018-09-28T06:36:50.668Z,988.335
2018-09-28T06:38:49.853Z,988.349
2018-09-28T06:40:50.146Z,988.369
2018-09-28T06:42:50.270Z,988.387
2018-09-28T06:44:50.422Z,988.399
2018-09-28T06:46:49.838Z,988.412
2018-09-28T06:48:49.874Z,988.427
2018-09-28T06:50:50.004Z,988.427
2018-09-28T06:52:50.159Z,988.478
2018-09-28T06:54:50.213Z,988.478
2018-09-28T06:56:50.710Z,988.515
2018-09-28T06:58:49.846Z,988.537
2018-09-28T07:00:49.873Z,988.536
2018-09-28T07:02:50.026Z,988.566
2018-09-28T07:04:50.476Z,988.576
2018-09-28T07:06:49.686Z,988.608
2018-09-28T07:08:49.960Z,988.613
2018-09-28T07:10:50.098Z,988.621
2018-09-28T07:12:50.144Z,988.636
2018-09-28T07:14:50.281Z,988.627
2018-09-28T07:16:50.012Z,988.651
2018-09-28T07:18:50.399Z,988.655
2018-09-28T07:20:50.548Z,988.660
2018-09-28T07:22:49.816Z,988.674
2018-09-28T07:24:50.588Z,988.681
2018-09-28T07:26:50.225Z,988.711
2018-09-28T07:28:50.544Z,988.734
2018-09-28T07:30:50.540Z,988.742
2018-09-28T07:32:49.669Z,988.742
2018-09-28T07:34:50.234Z,988.746
2018-09-28T07:36:50.975Z,988.760
2018-09-28T07:38:50.597Z,988.768
2018-09-28T07:40:49.769Z,988.766
2018-09-28T07:42:49.885Z,988.766
2018-09-28T07:44:50.050Z,988.772
2018-09-28T07:46:50.358Z,988.760
2018-09-28T07:48:50.470Z,988.769
2018-09-28T07:50:49.663Z,988.780
2018-09-28T07:52:49.782Z,988.781
2018-09-28T07:54:49.896Z,988.781
2018-09-28T07:56:50.228Z,988.811
2018-09-28T07:58:50.455Z,988.805
2018-09-28T08:00:50.639Z,988.805
2018-09-28T08:02:49.815Z,988.839
2018-09-28T08:04:50.266Z,988.839
2018-09-28T08:06:50.570Z,988.830
2018-09-28T08:08:49.646Z,988.842
2018-09-28T08:10:49.750Z,988.886
2018-09-28T08:12:50.237Z,988.900
2018-09-28T08:14:50.417Z,988.907
2018-09-28T08:16:49.675Z,988.931
2018-09-28T08:18:49.783Z,988.945
2018-09-28T08:20:49.932Z,988.954
2018-09-28T08:22:50.091Z,988.954
2018-09-28T08:24:50.261Z,988.946
2018-09-28T08:26:49.826Z,988.930
2018-09-28T08:28:49.957Z,988.865
2018-09-28T08:30:50.064Z,988.846
2018-09-28T08:32:50.188Z,988.845
2018-09-28T08:34:50.575Z,988.860
2018-09-28T08:36:50.598Z,988.871
2018-09-28T08:38:50.162Z,988.851
2018-09-28T08:40:50.221Z,988.852
2018-09-28T08:42:50.374Z,988.838
2018-09-28T08:44:50.476Z,988.848
2018-09-28T08:46:49.859Z,988.887
2018-09-28T08:48:49.989Z,988.891
2018-09-28T08:50:50.439Z,988.900
2018-09-28T08:52:49.753Z,988.932
2018-09-28T08:54:49.901Z,988.939
2018-09-28T08:56:50.220Z,988.972
2018-09-28T08:58:50.411Z,988.971
2018-09-28T09:00:50.593Z,988.923
2018-09-28T09:02:49.807Z,988.892
2018-09-28T09:04:50.500Z,988.892
2018-09-28T09:06:50.127Z,988.842
2018-09-28T09:08:50.217Z,988.841
2018-09-28T09:10:50.446Z,988.853
2018-09-28T09:12:49.621Z,988.846
2018-09-28T09:14:49.791Z,988.861
2018-09-28T09:16:50.223Z,988.843
2018-09-28T09:18:50.377Z,988.829
2018-09-28T09:20:50.625Z,988.839
2018-09-28T09:22:49.752Z,988.849
2018-09-28T09:24:49.908Z,988.849
2018-09-28T09:26:50.271Z,988.844
2018-09-28T09:28:50.448Z,988.835
2018-09-28T09:30:50.565Z,988.835
2018-09-28T09:32:49.707Z,988.813
2018-09-28T09:34:50.356Z,988.794
2018-09-28T09:36:49.640Z,988.794
2018-09-28T09:38:49.815Z,988.800
2018-09-28T09:40:50.000Z,988.809
2018-09-28T09:42:50.145Z,988.786
2018-09-28T09:44:50.400Z,988.769
2018-09-28T09:46:50.035Z,988.759
2018-09-28T09:48:50.197Z,988.743
2018-09-28T09:50:50.313Z,988.752
2018-09-28T09:52:50.409Z,988.744
2018-09-28T09:54:50.542Z,988.736
2018-09-28T09:56:49.916Z,988.723
2018-09-28T09:58:50.058Z,988.743
2018-09-28T10:00:50.369Z,988.733
2018-09-28T10:02:50.555Z,988.731
2018-09-28T10:04:50.248Z,988.701
2018-09-28T10:06:49.761Z,988.706
2018-09-28T10:08:49.970Z,988.711
2018-09-28T10:10:50.090Z,988.694
2018-09-28T10:12:50.560Z,988.673
2018-09-28T10:14:49.915Z,988.673
2018-09-28T10:16:50.214Z,988.646
2018-09-28T10:18:50.354Z,988.617
2018-09-28T10:20:50.336Z,988.587
2018-09-28T10:22:50.668Z,988.509
2018-09-28T10:24:49.808Z,988.494
2018-09-28T10:26:49.881Z,988.471
2018-09-28T10:28:49.999Z,988.488
2018-09-28T10:30:50.174Z,988.490
2018-09-28T10:32:50.139Z,988.491
2018-09-28T10:34:50.003Z,988.429
2018-09-28T10:36:49.802Z,988.412
2018-09-28T10:38:49.783Z,988.377
2018-09-28T10:40:50.340Z,988.377
2018-09-28T10:42:49.847Z,988.297
2018-09-28T10:44:49.863Z,988.316
2018-09-28T10:46:50.200Z,988.303
2018-09-28T10:48:50.272Z,988.283
2018-09-28T10:50:50.532Z,988.285
2018-09-28T10:52:50.253Z,988.298
2018-09-28T10:54:49.864Z,988.321
2018-09-28T10:56:50.036Z,988.277
2018-09-28T10:58:50.505Z,988.211
2018-09-28T11:00:50.019Z,988.226
2018-09-28T11:02:49.918Z,988.255
2018-09-28T11:04:50.827Z,988.197
2018-09-28T11:06:50.496Z,988.166
2018-09-28T11:08:50.676Z,988.109
2018-09-28T11:10:50.393Z,988.106
2018-09-28T11:12:49.887Z,988.120
2018-09-28T11:14:49.993Z,988.135
2018-09-28T11:16:50.288Z,988.103
2018-09-28T11:18:50.557Z,988.103
2018-09-28T11:20:49.804Z,988.050
2018-09-28T11:22:49.860Z,988.068
2018-09-28T11:24:50.083Z,988.066
2018-09-28T11:26:50.292Z,988.065
2018-09-28T11:28:50.549Z,988.081
2018-09-28T11:30:49.936Z,988.088
2018-09-28T11:32:50.140Z,988.083
2018-09-28T11:34:50.399Z,988.106
2018-09-28T11:36:49.708Z,988.089
2018-09-28T11:38:50.209Z,988.060
2018-09-28T11:40:50.354Z,988.049
2018-09-28T11:42:50.582Z,988.050
2018-09-28T11:44:50.658Z,988.055
2018-09-28T11:46:50.051Z,988.067
2018-09-28T11:48:50.173Z,988.053
2018-09-28T11:50:50.391Z,988.056
2018-09-28T11:52:49.810Z,988.061
2018-09-28T11:54:50.142Z,988.061
2018-09-28T11:56:50.570Z,988.048
2018-09-28T11:58:49.933Z,988.042
2018-09-28T12:00:50.348Z,987.995
2018-09-28T12:02:49.645Z,987.947
2018-09-28T12:04:50.226Z,987.892
2018-09-28T12:06:50.217Z,987.862
2018-09-28T12:08:50.426Z,987.847
2018-09-28T12:10:49.967Z,987.820
2018-09-28T12:12:50.493Z,987.831
2018-09-28T12:14:49.859Z,987.787
2018-09-28T12:16:50.399Z,987.771
2018-09-28T12:18:50.855Z,987.750
2018-09-28T12:20:49.946Z,987.683
2018-09-28T12:22:50.252Z,987.683
2018-09-28T12:24:50.915Z,987.649
2018-09-28T12:26:50.022Z,987.598
2018-09-28T12:28:50.419Z,987.595
2018-09-28T12:30:50.111Z,987.557
2018-09-28T12:32:50.114Z,987.551
2018-09-28T12:34:49.858Z,987.537
2018-09-28T12:36:50.825Z,987.499
2018-09-28T12:38:50.604Z,987.490
2018-09-28T12:40:50.013Z,987.499
2018-09-28T12:42:50.791Z,987.488
2018-09-28T12:44:50.227Z,987.475
2018-09-28T12:46:50.014Z,987.476
2018-09-28T12:48:50.782Z,987.453
2018-09-28T12:50:50.158Z,987.482
2018-09-28T12:52:49.822Z,987.454
2018-09-28T12:54:50.464Z,987.435
2018-09-28T12:56:50.885Z,987.398
2018-09-28T12:58:49.842Z,987.376
2018-09-28T13:00:50.786Z,987.351
2018-09-28T13:02:50.266Z,987.347
2018-09-28T13:04:50.380Z,987.328
2018-09-28T13:06:50.357Z,987.310
2018-09-28T13:08:50.333Z,987.281
2018-09-28T13:10:50.269Z,987.302
2018-09-28T13:12:50.449Z,987.314
2018-09-28T13:14:50.723Z,987.308
2018-09-28T13:16:49.997Z,987.268
2018-09-28T13:18:50.740Z,987.249
2018-09-28T13:20:50.928Z,987.235
2018-09-28T13:22:49.814Z,987.197
2018-09-28T13:24:50.475Z,987.199
2018-09-28T13:26:50.811Z,987.191
2018-09-28T13:28:50.586Z,987.191
2018-09-28T13:30:50.192Z,987.151
2018-09-28T13:32:50.247Z,987.151
2018-09-28T13:34:49.810Z,987.181
2018-09-28T13:36:50.743Z,987.194
2018-09-28T13:38:50.880Z,987.191
2018-09-28T13:40:50.245Z,987.191
2018-09-28T13:42:50.025Z,987.176
2018-09-28T13:44:50.805Z,987.184
2018-09-28T13:46:50.470Z,987.143
2018-09-28T13:48:50.823Z,987.117
2018-09-28T13:50:50.054Z,987.113
2018-09-28T13:52:50.253Z,987.111
2018-09-28T13:54:50.269Z,987.075
2018-09-28T13:56:50.642Z,987.103
2018-09-28T13:58:50.222Z,987.123
2018-09-28T14:00:50.790Z,987.126
2018-09-28T14:02:50.083Z,987.128
2018-09-28T14:04:50.133Z,987.146
2018-09-28T14:06:50.704Z,987.140
2018-09-28T14:08:50.261Z,987.166
2018-09-28T14:10:50.752Z,987.145
2018-09-28T14:12:50.577Z,987.145
2018-09-28T14:14:50.638Z,987.245
2018-09-28T14:16:51.011Z,987.227
2018-09-28T14:18:50.952Z,987.253
2018-09-28T14:20:50.508Z,987.250
2018-09-28T14:22:50.409Z,987.264
2018-09-28T14:24:50.896Z,987.236
2018-09-28T14:26:50.185Z,987.226
2018-09-28T14:28:50.523Z,987.188
2018-09-28T14:30:50.558Z,987.185
2018-09-28T14:32:49.982Z,987.143
2018-09-28T14:34:50.710Z,987.151
2018-09-28T14:36:50.367Z,987.158
2018-09-28T14:38:50.234Z,987.147
2018-09-28T14:40:50.947Z,987.135
2018-09-28T14:42:50.638Z,987.144
2018-09-28T14:44:50.340Z,987.155
2018-09-28T14:46:50.875Z,987.135
2018-09-28T14:48:50.933Z,987.134
2018-09-28T14:50:50.740Z,987.098
2018-09-28T14:52:50.288Z,987.111
2018-09-28T14:54:50.423Z,987.110
2018-09-28T14:56:50.844Z,987.110
2018-09-28T14:58:49.968Z,987.138
2018-09-28T15:00:50.516Z,987.132
2018-09-28T15:02:50.461Z,987.169
2018-09-28T15:04:50.217Z,987.191
2018-09-28T15:06:50.432Z,987.191
2018-09-28T15:08:50.468Z,987.192
2018-09-28T15:10:50.023Z,987.173
2018-09-28T15:12:50.306Z,987.170
2018-09-28T15:14:50.075Z,987.235
2018-09-28T15:16:50.213Z,987.235
2018-09-28T15:18:50.947Z,987.341
2018-09-28T15:20:49.873Z,987.383
2018-09-28T15:22:50.217Z,987.429
2018-09-28T15:24:50.361Z,987.498
2018-09-28T15:26:49.651Z,987.527
2018-09-28T15:28:49.897Z,987.588
2018-09-28T15:30:50.073Z,987.620
2018-09-28T15:32:50.219Z,987.682
2018-09-28T15:34:49.842Z,987.756
2018-09-28T15:36:50.080Z,987.756
2018-09-28T15:38:50.233Z,987.782
2018-09-28T15:40:50.453Z,987.792
2018-09-28T15:42:50.581Z,987.828
2018-09-28T15:44:49.709Z,987.826
2018-09-28T15:46:50.059Z,987.836
2018-09-28T15:48:50.279Z,987.856
2018-09-28T15:50:50.385Z,987.867
2018-09-28T15:52:50.510Z,987.885
2018-09-28T15:54:49.677Z,987.909
2018-09-28T15:56:50.337Z,987.929
2018-09-28T15:58:49.958Z,987.950
2018-09-28T16:00:50.107Z,987.964
2018-09-28T16:02:50.261Z,988.000
2018-09-28T16:04:49.869Z,988.028
2018-09-28T16:06:50.146Z,988.056
2018-09-28T16:08:50.274Z,988.098
2018-09-28T16:10:50.351Z,988.098
2018-09-28T16:12:50.579Z,988.096
2018-09-28T16:14:49.796Z,988.113
2018-09-28T16:16:50.131Z,988.145
2018-09-28T16:18:51.046Z,988.239
2018-09-28T16:20:50.461Z,988.249
2018-09-28T16:22:50.418Z,988.295
2018-09-28T16:24:50.029Z,988.351
2018-09-28T16:26:49.732Z,988.432
2018-09-28T16:28:49.787Z,988.491
2018-09-28T16:30:50.083Z,988.491
2018-09-28T16:32:50.242Z,988.554
2018-09-28T16:34:49.636Z,988.554
2018-09-28T16:36:50.072Z,988.582
2018-09-28T16:38:50.191Z,988.636
2018-09-28T16:40:50.241Z,988.641
2018-09-28T16:42:50.385Z,988.722
2018-09-28T16:44:50.506Z,988.749
2018-09-28T16:46:49.627Z,988.828
2018-09-28T16:48:49.825Z,988.831
2018-09-28T16:50:49.945Z,988.868
2018-09-28T16:52:50.003Z,988.925
2018-09-28T16:54:50.373Z,988.957
2018-09-28T16:56:49.742Z,988.987
2018-09-28T16:58:49.777Z,989.066
2018-09-28T17:00:50.001Z,989.173
2018-09-28T17:02:50.120Z,989.240
2018-09-28T17:04:50.544Z,989.240
2018-09-28T17:06:49.833Z,989.286
2018-09-28T17:08:49.965Z,989.286
2018-09-28T17:10:49.992Z,989.369
2018-09-28T17:12:50.169Z,989.476
2018-09-28T17:14:50.366Z,989.497
2018-09-28T17:16:49.639Z,989.531
2018-09-28T17:18:49.881Z,989.525
2018-09-28T17:20:50.003Z,989.528
2018-09-28T17:22:50.159Z,989.555
2018-09-28T17:24:50.421Z,989.555
2018-09-28T17:26:49.798Z,989.609
2018-09-28T17:28:49.948Z,989.609
2018-09-28T17:30:50.117Z,989.643
2018-09-28T17:32:50.283Z,989.651
2018-09-28T17:34:50.007Z,989.735
2018-09-28T17:36:50.392Z,989.815
2018-09-28T17:38:50.509Z,989.832
2018-09-28T17:40:49.741Z,989.883
2018-09-28T17:42:50.023Z,989.901
2018-09-28T17:44:50.184Z,989.965
2018-09-28T17:46:50.450Z,989.993
2018-09-28T17:48:49.679Z,990.076
2018-09-28T17:50:49.928Z,990.127
2018-09-28T17:52:50.028Z,990.162
2018-09-28T17:54:50.246Z,990.179
2018-09-28T17:56:50.622Z,990.225
2018-09-28T17:58:49.817Z,990.222
2018-09-28T18:00:50.016Z,990.230
2018-09-28T18:02:50.143Z,990.261
2018-09-28T18:04:49.641Z,990.289
2018-09-28T18:06:50.095Z,990.313
2018-09-28T18:08:50.269Z,990.347
2018-09-28T18:10:50.429Z,990.383
2018-09-28T18:12:50.611Z,990.429
2018-09-28T18:14:49.769Z,990.465
2018-09-28T18:16:50.107Z,990.485
2018-09-28T18:18:50.259Z,990.502
2018-09-28T18:20:50.417Z,990.528
2018-09-28T18:22:50.517Z,990.574
2018-09-28T18:24:49.665Z,990.621
2018-09-28T18:26:50.068Z,990.679
2018-09-28T18:28:50.220Z,990.729
2018-09-28T18:30:50.413Z,990.729
2018-09-28T18:32:50.601Z,990.805
2018-09-28T18:34:50.155Z,990.846
2018-09-28T18:36:50.556Z,990.926
2018-09-28T18:38:49.710Z,990.958
2018-09-28T18:40:50.048Z,991.023
2018-09-28T18:42:50.306Z,991.111
2018-09-28T18:44:50.448Z,991.117
2018-09-28T18:46:49.821Z,991.123
2018-09-28T18:48:49.977Z,991.149
2018-09-28T18:50:50.101Z,991.186
2018-09-28T18:52:50.218Z,991.192
2018-09-28T18:54:50.230Z,991.171
2018-09-28T18:56:50.588Z,991.174
2018-09-28T18:58:50.001Z,991.188
2018-09-28T19:00:50.463Z,991.211
2018-09-28T19:02:49.705Z,991.211
2018-09-28T19:04:50.312Z,991.296
2018-09-28T19:06:50.548Z,991.429
2018-09-28T19:08:49.685Z,991.429
2018-09-28T19:10:49.918Z,991.512
2018-09-28T19:12:50.525Z,991.535
2018-09-28T19:14:50.087Z,991.569
2018-09-28T19:16:50.482Z,991.641
2018-09-28T19:18:49.637Z,991.677
2018-09-28T19:20:49.922Z,991.717
2018-09-28T19:22:50.174Z,991.741
2018-09-28T19:24:50.385Z,991.786
2018-09-28T19:26:49.765Z,991.863
2018-09-28T19:28:49.921Z,991.869
2018-09-28T19:30:50.406Z,991.921
2018-09-28T19:32:49.871Z,992.005
2018-09-28T19:34:50.310Z,992.044
2018-09-28T19:36:50.586Z,992.044
2018-09-28T19:38:49.777Z,992.090
2018-09-28T19:40:50.061Z,992.129
2018-09-28T19:42:50.178Z,992.161
2018-09-28T19:44:50.331Z,992.139
2018-09-28T19:46:49.676Z,992.166
2018-09-28T19:48:49.873Z,992.199
2018-09-28T19:50:50.111Z,992.189
2018-09-28T19:52:50.337Z,992.189
2018-09-28T19:54:50.433Z,992.193
2018-09-28T19:56:49.742Z,992.236
2018-09-28T19:58:50.001Z,992.264
2018-09-28T20:00:50.160Z,992.298
2018-09-28T20:02:50.335Z,992.298
2018-09-28T20:04:49.943Z,992.379
2018-09-28T20:06:50.255Z,992.412
2018-09-28T20:08:50.261Z,992.412
2018-09-28T20:10:50.456Z,992.511
2018-09-28T20:12:50.879Z,992.544
2018-09-28T20:14:50.829Z,992.597
2018-09-28T20:16:49.996Z,992.591
2018-09-28T20:18:50.762Z,992.548
2018-09-28T20:20:50.521Z,992.552
2018-09-28T20:22:50.388Z,992.581
2018-09-28T20:24:50.373Z,992.607
2018-09-28T20:26:50.320Z,992.636
2018-09-28T20:28:50.166Z,992.694
2018-09-28T20:30:49.950Z,992.747
2018-09-28T20:32:50.224Z,992.788
2018-09-28T20:34:50.258Z,992.819
2018-09-28T20:36:50.196Z,992.880
2018-09-28T20:38:50.138Z,992.882
2018-09-28T20:40:50.050Z,992.898
2018-09-28T20:42:49.982Z,992.969
2018-09-28T20:44:49.932Z,992.999
2018-09-28T20:46:50.310Z,993.010
2018-09-28T20:48:50.359Z,992.986
2018-09-28T20:50:50.788Z,993.009
2018-09-28T20:52:50.609Z,993.009
2018-09-28T20:54:50.545Z,992.958
2018-09-28T20:56:50.460Z,992.938
2018-09-28T20:58:50.252Z,992.995
2018-09-28T21:00:50.362Z,993.014
2018-09-28T21:02:50.225Z,993.032
2018-09-28T21:04:50.271Z,993.032
2018-09-28T21:06:50.137Z,993.098
2018-09-28T21:08:49.951Z,993.098
2018-09-28T21:10:50.605Z,993.077
2018-09-28T21:12:50.312Z,993.068
2018-09-28T21:14:50.152Z,993.066
2018-09-28T21:16:49.908Z,993.054
2018-09-28T21:18:50.012Z,993.045
2018-09-28T21:20:50.114Z,993.068
2018-09-28T21:22:50.278Z,993.079
2018-09-28T21:24:50.406Z,993.049
2018-09-28T21:26:49.805Z,993.047
2018-09-28T21:28:50.208Z,993.074
2018-09-28T21:30:50.492Z,993.105
2018-09-28T21:32:49.609Z,993.105
2018-09-28T21:34:50.228Z,993.137
2018-09-28T21:36:50.562Z,993.148
2018-09-28T21:38:49.662Z,993.169
2018-09-28T21:40:49.918Z,993.179
2018-09-28T21:42:50.093Z,993.205
2018-09-28T21:44:50.295Z,993.211
2018-09-28T21:46:49.782Z,993.233
2018-09-28T21:48:49.962Z,993.286
2018-09-28T21:50:50.091Z,993.291
2018-09-28T21:52:50.119Z,993.296
2018-09-28T21:54:50.257Z,993.270
2018-09-28T21:56:50.528Z,993.255
2018-09-28T21:58:50.599Z,993.274
2018-09-28T22:00:49.761Z,993.273
2018-09-28T22:02:49.954Z,993.292
2018-09-28T22:04:50.704Z,993.297
2018-09-28T22:06:50.176Z,993.311
2018-09-28T22:08:50.172Z,993.311
2018-09-28T22:10:50.162Z,993.310
2018-09-28T22:12:50.213Z,993.346
2018-09-28T22:14:50.346Z,993.354
2018-09-28T22:16:49.782Z,993.366
2018-09-28T22:18:49.968Z,993.394
2018-09-28T22:20:50.130Z,993.457
2018-09-28T22:22:50.239Z,993.486
2018-09-28T22:24:50.378Z,993.528
2018-09-28T22:26:50.566Z,993.514
2018-09-28T22:28:49.787Z,993.472
2018-09-28T22:30:50.032Z,993.472
2018-09-28T22:32:50.138Z,993.472
2018-09-28T22:34:50.551Z,993.533
2018-09-28T22:36:49.884Z,993.581
2018-09-28T22:38:50.036Z,993.631
2018-09-28T22:40:50.185Z,993.661
2018-09-28T22:42:50.377Z,993.684
2018-09-28T22:44:50.511Z,993.697
2018-09-28T22:46:49.808Z,993.686
2018-09-28T22:48:49.938Z,993.702
2018-09-28T22:50:50.188Z,993.767
2018-09-28T22:52:50.281Z,993.755
2018-09-28T22:54:50.536Z,993.757
2018-09-28T22:56:49.900Z,993.769
2018-09-28T22:58:50.061Z,993.815
2018-09-28T23:00:50.310Z,993.867
2018-09-28T23:02:50.483Z,993.945
2018-09-28T23:04:49.998Z,993.958
2018-09-28T23:06:50.324Z,993.955
2018-09-28T23:08:50.451Z,993.960
2018-09-28T23:10:49.925Z,993.957
2018-09-28T23:12:50.127Z,993.981
2018-09-28T23:14:50.323Z,993.991
2018-09-28T23:16:49.681Z,994.022
2018-09-28T23:18:49.845Z,994.033
2018-09-28T23:20:50.010Z,994.047
2018-09-28T23:22:50.123Z,994.034
2018-09-28T23:24:50.318Z,994.067
2018-09-28T23:26:50.595Z,994.093
2018-09-28T23:28:49.840Z,994.112
2018-09-28T23:30:50.004Z,994.117
2018-09-28T23:32:50.248Z,994.131
2018-09-28T23:34:49.876Z,994.150
2018-09-28T23:36:50.138Z,994.160
2018-09-28T23:38:50.337Z,994.169
2018-09-28T23:40:50.540Z,994.176
2018-09-28T23:42:49.664Z,994.175
2018-09-28T23:44:49.872Z,994.187
2018-09-28T23:46:50.152Z,994.232
2018-09-28T23:48:50.374Z,994.235
2018-09-28T23:50:50.666Z,994.217
2018-09-28T23:52:49.853Z,994.228
2018-09-28T23:54:49.947Z,994.233
2018-09-28T23:56:50.164Z,994.267
2018-09-28T23:58:50.272Z,994.313
